Latest Weather Observations for Hopetoun North

IDW60801

Issued at 10:03 pm WST Wednesday 31 August 2016 (issued every 30 minutes, with the page automatically refreshed every 10 minutes)

About weather observations | Map of weather stations | Latest weather observations for WA | Other Formats
Station Details ID: 009961 Name: HOPETOUN NORTH Lat: -33.93 Lon: 120.13 Height: 26.0 m
Data from the previous 72 hours. | See also: Recent months at Hopetoun North
Date/Time
WST
Temp
°C
App
Temp
°C
Dew
Point
°C
Rel
Hum
%
Delta-T
°C
Wind Press
QNH
hPa
Press
MSL
hPa
Rain since
9am
mm
Dir  Spd
km/h
Gust
km/h
Spd
kts
Gust
kts
31/10:00pm 12.7 6.5 12.7 100 0.0 SSW 37 50 20 27 1016.3 1016.3 18.6
31/09:30pm 12.8 7.0 12.8 100 0.0 SW 35 54 19 29 1015.8 1015.7 18.2
31/09:00pm 12.9 8.5 12.9 100 0.0 SW 28 39 15 21 1015.1 1015.1 18.0
31/08:30pm 12.8 10.8 12.8 100 0.0 SSW 15 20 8 11 1015.0 1015.0 17.8
31/08:00pm 11.9 8.9 11.9 100 0.0 SSW 19 32 10 17 1014.6 1014.6 17.8
31/07:30pm 12.5 11.2 12.5 100 0.0 WNW 11 17 6 9 1014.0 1014.0 13.6
31/07:00pm 12.3 11.7 12.3 100 0.0 SSW 7 9 4 5 1013.5 1013.5 12.8
31/06:30pm 12.3 10.6 12.3 100 0.0 SSW 13 22 7 12 1013.0 1013.0 12.4
31/06:00pm 12.6 13.0 12.6 100 0.0 SE 2 4 1 2 1012.2 1012.2 8.0
31/05:30pm 12.8 12.5 12.8 100 0.0 SSE 6 9 3 5 1011.9 1011.9 8.0
31/05:00pm 13.1 12.9 13.1 100 0.0 ESE 6 6 3 3 1011.5 1011.5 7.8
31/04:30pm 13.0 13.2 13.0 100 0.0 NNE 4 6 2 3 1011.3 1011.3 7.4
31/04:00pm 13.3 13.0 13.3 100 0.0 S 7 9 4 5 1010.8 1010.8 3.8
31/03:30pm 13.5 11.7 13.3 99 0.1 S 15 19 8 10 1010.5 1010.5 2.6
31/03:00pm 13.8 12.5 13.6 99 0.1 S 13 19 7 10 1010.1 1010.1 2.6
31/02:30pm 13.3 11.4 13.1 99 0.1 SSW 15 20 8 11 1010.3 1010.3 2.6
31/02:00pm 13.5 10.9 13.3 99 0.1 SSW 19 26 10 14 1010.1 1010.1 2.2
31/01:30pm 13.7 12.6 13.1 96 0.3 SW 11 24 6 13 1010.0 1010.0 1.4
31/01:00pm 15.0 14.0 12.3 84 1.5 SSW 9 20 5 11 1009.6 1009.6 0.6
31/12:30pm 17.4 16.6 11.0 66 3.5 NNE 6 9 3 5 1009.5 1009.5 0.0
31/12:00pm 16.9 16.0 10.7 67 3.3 N 6 11 3 6 1010.0 1010.0 0.0
31/11:30am 16.5 14.9 10.1 66 3.4 NNW 9 15 5 8 1010.4 1010.4 0.0
31/11:00am 17.1 14.4 10.2 64 3.7 NNW 15 26 8 14 1010.6 1010.6 0.0
31/10:30am 17.4 14.5 9.6 60 4.1 N 15 22 8 12 1010.7 1010.7 0.0
31/10:00am 16.8 14.8 10.0 64 3.6 N 11 19 6 10 1010.8 1010.8 0.0
31/09:30am 17.1 14.6 10.9 67 3.3 N 15 20 8 11 1011.0 1011.0 0.0
31/09:00am 16.2 13.9 11.6 74 2.5 N 15 22 8 12 1011.1 1011.1 0.0
31/08:30am 13.4 11.0 10.2 81 1.7 NNE 13 19 7 10 1011.1 1011.1 0.0
31/08:00am 12.9 11.1 10.8 87 1.1 N 11 17 6 9 1011.2 1011.2 0.0
31/07:30am 10.8 9.6 10.3 97 0.3 N 7 11 4 6 1011.4 1011.4 0.0
31/07:00am 9.7 7.2 9.6 99 0.0 NNE 13 19 7 10 1011.1 1011.1 0.0
31/06:30am 8.8 6.0 8.7 99 0.0 NNE 13 17 7 9 1011.1 1011.1 0.0
31/06:00am 8.2 5.7 8.2 100 0.0 NNE 11 15 6 8 1011.3 1011.3 0.0
31/05:30am 7.1 3.9 7.0 99 0.0 NE 13 15 7 8 1011.6 1011.6 0.0
31/05:00am 7.5 4.8 7.4 99 0.0 NE 11 15 6 8 1012.0 1012.0 0.0
31/04:30am 7.1 4.3 7.0 99 0.0 NE 11 13 6 7 1011.9 1011.9 0.0
31/04:00am 7.8 5.6 7.7 99 0.0 N 9 13 5 7 1012.1 1012.1 0.0
31/03:30am 7.9 5.7 7.8 99 0.0 N 9 13 5 7 1012.5 1012.5 0.0
31/03:00am 8.0 5.8 7.9 99 0.0 NNW 9 13 5 7 1013.1 1013.1 0.0
31/02:30am 7.8 5.9 7.7 99 0.0 N 7 11 4 6 1013.2 1013.2 0.0
31/02:00am 8.1 6.3 8.0 99 0.0 N 7 11 4 6 1013.2 1013.2 0.0
31/01:30am 7.8 5.9 7.7 99 0.0 N 7 15 4 8 1013.7 1013.7 0.0
31/01:00am 8.0 6.2 7.9 99 0.0 N 7 9 4 5 1013.9 1013.9 0.0
31/12:30am 7.9 6.3 7.8 99 0.0 NE 6 6 3 3 1014.2 1014.2 0.0
31/12:00am 7.8 5.6 7.7 99 0.0 NE 9 9 5 5 1014.1 1014.1 0.0
 
Date/Time
WST
Temp
°C
App
Temp
°C
Dew
Point
°C
Rel
Hum
%
Delta-T
°C
Wind Press
QNH
hPa
Press
MSL
hPa
Rain since
9am
mm
Dir  Spd
km/h
Gust
km/h
Spd
kts
Gust
kts
30/11:30pm 8.0 6.2 7.9 99 0.0 NE 7 11 4 6 1014.4 1014.4 0.0
30/11:00pm 9.1 7.7 9.0 99 0.0 NNE 6 6 3 3 1014.5 1014.5 0.0
30/10:30pm 9.4 8.1 9.3 99 0.0 N 6 9 3 5 1014.8 1014.8 0.0
30/10:00pm 9.2 7.7 9.1 99 0.0 N 7 9 4 5 1014.9 1014.9 0.0
30/09:30pm 9.5 7.7 9.4 99 0.0 NNE 9 9 5 5 1014.9 1014.9 0.0
30/09:00pm 9.3 7.8 9.2 99 0.0 NNE 7 9 4 5 1015.1 1015.1 0.0
30/08:30pm 9.4 7.5 9.1 98 0.1 NE 9 9 5 5 1015.0 1015.0 0.0
30/08:00pm 9.7 8.2 9.2 97 0.2 NE 7 9 4 5 1015.1 1015.1 0.0
30/07:30pm 9.8 8.3 9.2 96 0.3 NE 7 9 4 5 1014.9 1014.9 0.0
30/07:00pm 10.4 8.9 9.3 93 0.5 NE 7 9 4 5 1014.9 1014.9 0.0
30/06:30pm 10.9 9.6 9.2 89 0.8 ENE 6 7 3 4 1014.8 1014.8 0.0
30/06:00pm 11.6 10.7 9.2 85 1.2 E 4 6 2 3 1014.8 1014.8 0.0
30/05:30pm 13.1 12.2 9.2 77 2.0 E 4 4 2 2 1014.7 1014.7 0.0
30/05:00pm 13.8 12.9 9.3 74 2.3 SE 4 6 2 3 1014.5 1014.5 0.0
30/04:30pm 14.0 12.6 9.0 72 2.5 SE 6 9 3 5 1014.2 1014.2 0.0
30/04:00pm 14.1 12.6 9.1 72 2.5 SSE 7 9 4 5 1014.0 1014.0 0.0
30/03:30pm 14.3 12.3 8.7 69 2.8 SSE 9 13 5 7 1013.9 1013.9 0.0
30/03:00pm 15.1 12.8 9.0 67 3.1 S 11 15 6 8 1014.0 1014.0 0.0
30/02:30pm 14.9 12.2 9.1 68 3.0 S 13 17 7 9 1014.2 1014.2 0.0
30/02:00pm 15.5 13.0 9.8 69 3.0 S 13 19 7 10 1014.4 1014.4 0.0
30/01:30pm 15.6 13.9 9.7 68 3.1 SSW 9 13 5 7 1014.5 1014.5 0.0
30/01:00pm 15.9 14.3 10.2 69 3.0 SSW 9 13 5 7 1014.7 1014.7 0.0
30/12:30pm 15.6 14.4 10.2 70 2.8 WSW 7 15 4 8 1015.0 1015.0 0.0
30/12:00pm 14.9 12.6 9.1 68 3.0 SW 11 19 6 10 1015.6 1015.5 0.0
30/11:30am 13.8 11.3 8.4 70 2.7 SSW 11 15 6 8 1015.8 1015.7 0.0
30/11:00am 14.6 12.7 9.0 69 2.8 WSW 9 13 5 7 1016.1 1016.1 0.0
30/10:30am 14.6 13.1 9.0 69 2.9 WNW 7 13 4 7 1016.4 1016.4 0.0
30/10:00am 13.8 10.9 8.2 69 2.8 W 13 20 7 11 1016.7 1016.7 0.0
30/09:30am 13.7 11.2 8.3 70 2.7 W 11 19 6 10 1016.8 1016.8 0.0
30/09:00am 13.1 10.9 9.4 78 1.9 WNW 11 17 6 9 1016.7 1016.7 4.6
30/08:30am 12.0 9.8 9.4 84 1.3 WNW 11 17 6 9 1016.7 1016.7 4.6
30/08:00am 10.4 8.2 9.3 93 0.5 WNW 11 15 6 8 1016.5 1016.5 4.6
30/07:30am 9.0 6.7 8.9 99 0.0 WNW 11 17 6 9 1016.4 1016.4 4.4
30/07:00am 8.0 5.8 7.9 99 0.0 NNW 9 13 5 7 1016.3 1016.3 4.4
30/06:30am 7.5 5.6 7.4 99 0.0 NW 7 11 4 6 1015.9 1015.8 4.4
30/06:00am 7.8 5.2 7.7 99 0.0 NW 11 15 6 8 1015.6 1015.5 4.4
30/05:30am 7.8 5.2 7.7 99 0.0 WNW 11 15 6 8 1015.2 1015.2 4.4
30/05:00am 7.9 5.3 7.8 99 0.0 WNW 11 15 6 8 1015.0 1015.0 4.4
30/04:30am 8.0 5.8 7.9 99 0.0 WNW 9 13 5 7 1014.8 1014.8 4.4
30/04:00am 8.0 5.4 7.9 99 0.0 WNW 11 15 6 8 1014.6 1014.6 4.4
30/03:30am 8.0 5.4 7.9 99 0.0 WNW 11 17 6 9 1014.4 1014.4 4.4
30/03:00am 8.2 5.3 8.1 99 0.0 W 13 17 7 9 1014.6 1014.6 4.4
30/02:30am 8.7 5.9 8.6 99 0.0 WNW 13 20 7 11 1014.7 1014.7 4.4
30/02:00am 9.3 5.9 9.2 99 0.0 WNW 17 26 9 14 1014.7 1014.7 4.4
30/01:30am 9.3 5.9 9.2 99 0.0 W 17 22 9 12 1014.8 1014.8 4.4
30/01:00am 9.6 5.9 9.6 100 0.0 W 19 26 10 14 1014.8 1014.8 4.4
30/12:30am 9.6 6.3 9.6 100 0.0 W 17 24 9 13 1014.9 1014.9 4.4
30/12:00am 10.2 6.7 10.2 100 0.0 W 19 28 10 15 1014.9 1014.9 4.4
 
Date/Time
WST
Temp
°C
App
Temp
°C
Dew
Point
°C
Rel
Hum
%
Delta-T
°C
Wind Press
QNH
hPa
Press
MSL
hPa
Rain since
9am
mm
Dir  Spd
km/h
Gust
km/h
Spd
kts
Gust
kts
29/11:30pm 10.6 8.0 10.6 100 0.0 W 15 24 8 13 1014.7 1014.7 4.4
29/11:00pm 10.7 8.1 10.7 100 0.0 W 15 26 8 14 1014.7 1014.7 4.4
29/10:30pm 10.8 7.8 10.8 100 0.0 W 17 24 9 13 1014.5 1014.5 3.8
29/10:00pm 11.7 8.4 11.5 99 0.1 W 20 30 11 16 1014.5 1014.5 3.0
29/09:30pm 11.8 8.8 11.8 100 0.0 WSW 19 26 10 14 1014.4 1014.4 2.8
29/09:00pm 12.4 8.1 12.2 99 0.1 SW 26 35 14 19 1014.4 1014.4 2.8
29/08:30pm 11.5 8.2 11.5 100 0.0 SW 20 39 11 21 1014.2 1014.2 2.8
29/08:00pm 12.3 9.2 12.1 99 0.1 SW 20 28 11 15 1014.1 1014.1 2.2
29/07:30pm 12.2 8.3 12.0 99 0.1 SW 24 35 13 19 1013.8 1013.8 2.2
29/07:00pm 11.8 7.7 11.6 99 0.1 WSW 24 33 13 18 1013.6 1013.6 1.8
29/06:30pm 12.2 7.9 12.0 99 0.1 SW 26 39 14 21 1013.4 1013.4 1.8
29/06:00pm 12.8 8.2 12.3 97 0.3 SSW 28 41 15 22 1013.0 1013.0 1.6
29/05:30pm 12.7 8.5 12.4 98 0.2 SSW 26 33 14 18 1012.6 1012.6 1.6
29/05:00pm 12.5 8.7 12.3 99 0.1 SSW 24 33 13 18 1012.5 1012.5 1.6
29/04:30pm 12.7 8.9 12.5 99 0.1 SW 24 37 13 20 1012.1 1012.1 0.8
29/04:00pm 13.8 9.2 12.4 91 0.8 SSW 28 37 15 20 1011.6 1011.6 0.8
29/03:30pm 14.5 10.0 12.5 88 1.1 SW 28 39 15 21 1011.2 1011.2 0.8
29/03:00pm 14.0 8.7 12.4 90 0.9 SSW 32 41 17 22 1011.0 1011.0 0.8
29/02:30pm 14.6 9.3 12.5 87 1.1 SSW 32 43 17 23 1010.9 1010.9 0.8
29/02:00pm 14.2 9.9 13.1 93 0.6 SSW 28 41 15 22 1010.9 1010.9 0.8
29/01:30pm 14.1 8.8 13.1 94 0.6 SSW 33 46 18 25 1010.9 1010.9 0.8
29/01:00pm 13.5 8.2 13.2 98 0.2 SSW 33 46 18 25 1010.9 1010.9 0.8
29/12:30pm 13.4 8.8 13.4 100 0.0 SW 30 43 16 23 1010.8 1010.8 0.8
29/12:00pm 13.2 8.4 13.0 99 0.1 SW 30 43 16 23 1011.0 1011.0 0.2
29/11:30am 15.4 10.4 12.3 82 1.7 SSW 30 39 16 21 1010.9 1010.9 0.0
29/11:00am 15.4 10.0 12.3 82 1.7 SSW 32 44 17 24 1010.9 1010.9 0.0
29/10:30am 15.3 9.7 12.2 82 1.7 SSW 33 46 18 25 1010.7 1010.7 0.0
29/10:00am 15.0 9.1 12.5 85 1.4 SSW 35 46 19 25 1010.4 1010.4 0.0
29/09:30am 14.6 8.8 12.6 88 1.1 SSW 35 48 19 26 1010.3 1010.3 0.0
29/09:00am 13.6 7.4 12.8 95 0.4 SSW 37 50 20 27 1009.9 1009.9 2.8
29/08:30am 14.6 8.2 13.1 91 0.8 SSW 39 54 21 29 1009.6 1009.6 2.8
29/08:00am 13.6 7.1 13.0 96 0.3 SSW 39 48 21 26 1009.4 1009.4 2.8
29/07:30am 13.2 6.0 13.0 99 0.1 SSW 43 57 23 31 1009.0 1009.0 2.8
29/07:00am 12.7 6.1 12.5 99 0.1 SSW 39 57 21 31 1008.7 1008.7 2.8
29/06:50am 12.8 6.6 12.6 99 0.1 SSW 37 59 20 32 1008.6 1008.6 2.8
29/06:30am 12.8 6.2 12.6 99 0.1 SSW 39 56 21 30 1008.2 1008.2 2.6
29/06:00am 12.6 5.9 12.4 99 0.1 SSW 39 61 21 33 1007.9 1007.9 2.6
29/05:53am 12.5 6.2 12.3 99 0.1 SSW 37 56 20 30 1007.9 1007.9 2.6
29/05:30am 12.5 5.4 12.3 99 0.1 SSW 41 57 22 31 1007.5 1007.5 2.6
29/05:04am 12.1 5.3 11.9 99 0.1 SSW 39 57 21 31 1007.3 1007.3 2.4
29/05:00am 12.6 5.6 12.4 99 0.1 SSW 41 57 22 31 1007.3 1007.3 2.2
29/04:30am 13.2 6.1 12.3 94 0.5 SSW 41 52 22 28 1006.9 1006.9 2.2
29/04:20am 13.2 6.2 12.6 96 0.3 SSW 41 61 22 33 1006.8 1006.8 2.2
29/04:00am 12.6 5.9 12.3 98 0.2 SSW 39 56 21 30 1006.7 1006.7 2.2
29/03:40am 12.5 6.6 12.3 99 0.1 SSW 35 54 19 29 1006.7 1006.7 2.2
29/03:30am 12.6 6.3 12.4 99 0.1 SSW 37 50 20 27 1006.7 1006.7 2.2
29/03:17am 12.7 5.5 11.8 94 0.5 SSW 41 63 22 34 1006.6 1006.6 2.2
29/03:00am 12.9 5.6 11.6 92 0.7 SSW 41 57 22 31 1006.5 1006.5 2.2
29/02:30am 12.6 5.8 12.1 97 0.3 SSW 39 56 21 30 1006.4 1006.4 2.2
29/02:04am 13.1 6.2 11.7 91 0.7 SSW 39 57 21 31 1006.5 1006.5 2.2
29/02:00am 13.1 6.6 11.7 91 0.7 SSW 37 54 20 29 1006.5 1006.5 2.2
29/01:30am 13.0 6.1 11.7 92 0.7 SSW 39 52 21 28 1006.6 1006.6 2.2
29/01:17am 12.9 6.9 12.1 95 0.4 SSW 35 54 19 29 1006.5 1006.5 2.2
29/01:00am 12.8 6.6 12.5 98 0.2 SSW 37 54 20 29 1006.5 1006.5 2.2
29/12:30am 12.4 6.1 12.2 99 0.1 SSW 37 52 20 28 1006.4 1006.4 2.2
29/12:00am 12.8 6.4 12.0 95 0.4 SSW 37 56 20 30 1006.5 1006.5 2.0
 
Date/Time
WST
Temp
°C
App
Temp
°C
Dew
Point
°C
Rel
Hum
%
Delta-T
°C
Wind Press
QNH
hPa
Press
MSL
hPa
Rain since
9am
mm
Dir  Spd
km/h
Gust
km/h
Spd
kts
Gust
kts
28/11:30pm 12.5 6.2 12.3 99 0.1 SSW 37 50 20 27 1006.5 1006.5 2.0
28/11:19pm 12.8 6.7 11.9 94 0.5 SSW 35 57 19 31 1006.6 1006.6 2.0
28/11:00pm 12.3 6.3 12.1 99 0.1 SW 35 50 19 27 1006.7 1006.7 1.8
28/10:50pm 12.8 6.2 11.5 92 0.7 SSW 37 56 20 30 1006.7 1006.7 1.8
28/10:30pm 13.0 6.5 11.7 92 0.7 SSW 37 48 20 26 1006.7 1006.7 1.8
28/10:17pm 12.9 6.9 12.1 95 0.4 SSW 35 56 19 30 1006.8 1006.8 1.8

Other Formats:

Comma delimited format used in spreadsheet applications
http://www.bom.gov.au/fwo/IDW60801/IDW60801.95635.axf

JavaScript Object Notation format (JSON) in row-major order
http://www.bom.gov.au/fwo/IDW60801/IDW60801.95635.json